Terminal Aerodrome Forecast
Issued by NWS Billings, MT

Home | Current Version | Previous Version | Graphics & Text | Print | Product List | Glossary On
Versions: 1 2 3 4 5 6 7 8 9 10 11 12 13 14 15 16 17 18 19 20 21 22 23 24 25 26 27 28 29
000
FTUS45 KBYZ 101121
TAFMLS
TAF
KMLS 101121Z 1012/1112 30008KT P6SM SKC WS017/33037KT
     FM101500 31010KT P6SM FEW200
     FM110000 02010KT P6SM BKN015
     FM110600 VRB05KT P6SM BKN015
     FM110900 VRB05KT P6SM SCT015 BKN100=

USA.gov is the U.S. government's official web portal to all federal, state and local government web resources and services.